Okeechobee, Florida
Current Conditions -  °F | °C
As of 11:35 AM on Saturday 22 Nov 2014 (Local Time) from KOBE Reporting Station
Overcast Overcast  
Wind Chill: 75°   Ceiling: 2800
Heat Index: 75°   Visibility: 10mi
Dew Point: 66°   Wind: 9mph
Humidity: 73%   Direction: 100°E
Pressure: 30.22"   Gusts: 17mph
Location:  26.98°N, 81.1°W
Report Text: KOBE 221635Z AUTO 10008G15KT 035V115 10SM BKN028 BKN036 OVC049 24/19 A3022 RMK AO2
Loading
Personal Weather Stations






























Interactive Weather Map New forecast layout! Learn more

10-Day Weather Forecast

Advertisements
Track Severe Weather on mobile